Time;durP1;ratioP1;P1;durP2;ratioP2;P2;SDS_P1;SDS_P2;PMS_P1;PMS_P2;Temp;Humidity;BMP_temperature;BMP_pressure;BME280_temperature;BME280_humidity;BME280_pressure;Samples;Min_cycle;Max_cycle;Signal;HPM_P1;HPM_P2
2023/04/02 00:01:13;;;;;;;6.77;5.50;;;;;;;17.54;nan;99713.44;5087630;27;20467;-69
2023/04/02 00:04:04;;;;;;;5.70;5.20;;;;;;;15.99;nan;99732.78;5092040;28;20455;-71
2023/04/02 00:06:38;;;;;;;6.50;5.20;;;;;;;16.57;nan;99740.06;5093982;27;20520;-68
2023/04/02 00:09:22;;;;;;;6.10;5.50;;;;;;;15.47;nan;99749.88;5102650;28;20499;-68
2023/04/02 00:11:53;;;;;;;6.50;5.80;;;;;;;16.40;nan;99735.94;5103796;28;20498;-68
2023/04/02 00:14:23;;;;;;;5.60;5.10;;;;;;;16.66;nan;99748.88;5106063;28;20469;-70
2023/04/02 00:16:51;;;;;;;7.83;5.67;;;;;;;15.71;nan;99745.22;5107666;28;20491;-68
2023/04/02 00:19:23;;;;;;;5.37;4.83;;;;;;;17.41;nan;99747.47;5102001;28;20479;-68
2023/04/02 00:21:51;;;;;;;6.80;5.23;;;;;;;16.45;nan;99753.22;5106650;28;21128;-69
2023/04/02 00:24:20;;;;;;;6.53;5.93;;;;;;;17.79;nan;99759.72;5101650;28;20455;-69
2023/04/02 00:26:49;;;;;;;6.47;5.87;;;;;;;17.84;nan;99755.38;5104364;28;20482;-69
2023/04/02 00:29:16;;;;;;;6.70;4.53;;;;;;;-145.52;100.00;65322.94;5102075;28;20464;-69
2023/04/02 00:31:45;;;;;;;5.03;4.53;;;;;;;18.31;nan;96237.41;5100897;28;20498;-68
2023/04/02 00:34:18;;;;;;;6.03;4.97;;;;;;;-145.52;100.00;65322.94;5101888;28;20531;-68
2023/04/02 00:36:46;;;;;;;6.10;5.50;;;;;;;-145.52;100.00;65322.94;5096241;28;20479;-69
2023/04/02 00:39:18;;;;;;;4.97;4.57;;;;;;;-145.52;100.00;65322.94;5101450;28;20458;-72
2023/04/02 00:41:46;;;;;;;5.37;4.87;;;;;;;-145.52;100.00;65322.94;5099740;28;21011;-71
2023/04/02 00:44:13;;;;;;;4.83;4.43;;;;;;;-145.52;100.00;65322.94;5104878;28;20465;-69
2023/04/02 00:46:48;;;;;;;5.40;4.80;;;;;;;-145.52;100.00;65322.94;5098346;28;20537;-69
2023/04/02 00:49:21;;;;;;;7.40;4.27;;;;;;;-145.52;100.00;65322.94;5099647;28;20439;-68
2023/04/02 00:51:50;;;;;;;4.20;3.80;;;;;;;-145.52;100.00;65322.94;5101676;28;20510;-69
2023/04/02 00:54:20;;;;;;;7.13;3.90;;;;;;;-145.52;100.00;65322.94;5105290;28;20462;-69
2023/04/02 00:56:48;;;;;;;5.53;4.00;;;;;;;-145.52;100.00;65322.94;5100083;28;20475;-69
2023/04/02 00:59:22;;;;;;;5.00;4.57;;;;;;;-145.52;100.00;65322.94;5101601;28;20475;-69
2023/04/02 01:01:53;;;;;;;5.37;4.60;;;;;;;-145.52;100.00;65322.94;5106148;28;20498;-68
2023/04/02 01:04:31;;;;;;;6.37;5.60;;;;;;;-145.52;100.00;65322.94;5102781;28;21047;-67
2023/04/02 01:06:58;;;;;;;6.53;5.93;;;;;;;-145.52;100.00;65322.94;5104646;28;20470;-67
2023/04/02 01:09:38;;;;;;;6.17;5.67;;;;;;;-145.52;100.00;65322.94;5101748;28;20447;-67
2023/04/02 01:12:21;;;;;;;7.73;5.83;;;;;;;-145.52;100.00;65322.94;5098051;28;20897;-67
2023/04/02 01:14:53;;;;;;;8.23;5.70;;;;;;;-145.52;100.00;65322.94;5100251;28;20486;-67
2023/04/02 01:17:41;;;;;;;7.20;6.03;;;;;;;-145.52;100.00;65322.94;5092352;28;20491;-67
2023/04/02 01:20:44;;;;;;;10.17;7.17;;;;;;;-145.52;100.00;65322.94;5108465;27;20859;-68
2023/04/02 01:23:15;;;;;;;9.60;6.93;;;;;;;-145.52;100.00;65322.94;5088246;28;20470;-67
2023/04/02 01:25:44;;;;;;;9.83;6.93;;;;;;;-145.52;100.00;65322.94;5086384;28;20473;-68
2023/04/02 01:28:18;;;;;;;7.73;6.67;;;;;;;-145.52;100.00;65322.94;5105099;28;20442;-68
2023/04/02 01:30:50;;;;;;;10.07;7.83;;;;;;;-145.52;100.00;65322.94;5097014;27;20554;-68
2023/04/02 01:33:17;;;;;;;12.83;7.40;;;;;;;-145.52;100.00;65322.94;5083777;28;20492;-68
2023/04/02 01:35:47;;;;;;;7.80;7.00;;;;;;;-145.52;100.00;65322.94;5085948;28;20490;-68
2023/04/02 01:38:18;;;;;;;11.07;7.60;;;;;;;-145.52;100.00;65322.94;5114278;28;20982;-68
2023/04/02 01:40:47;;;;;;;11.47;7.50;;;;;;;-145.52;100.00;65322.94;5094090;28;20486;-68
2023/04/02 01:43:18;;;;;;;9.30;7.80;;;;;;;-145.52;100.00;65322.94;5081127;28;20494;-68
2023/04/02 01:45:46;;;;;;;11.10;8.10;;;;;;;-145.52;100.00;65322.94;5079463;28;20484;-68
2023/04/02 01:48:15;;;;;;;15.10;7.20;;;;;;;-145.52;100.00;65322.94;5080396;28;20455;-68
2023/04/02 01:50:44;;;;;;;10.13;6.80;;;;;;;-145.52;100.00;65322.94;5085923;28;20474;-68
2023/04/02 01:53:13;;;;;;;15.13;8.67;;;;;;;-145.52;100.00;65322.94;5100136;28;20487;-68
2023/04/02 01:55:42;;;;;;;12.57;7.97;;;;;;;-145.52;100.00;65322.94;5096206;28;20498;-68
2023/04/02 01:58:11;;;;;;;10.23;7.20;;;;;;;-145.52;100.00;65322.94;5088794;28;20451;-68
2023/04/02 02:00:43;;;;;;;11.77;8.43;;;;;;;-145.52;100.00;65322.94;5093188;28;20475;-68
2023/04/02 02:03:12;;;;;;;12.33;7.93;;;;;;;-145.52;100.00;65322.94;5103652;28;20455;-68
2023/04/02 02:05:39;;;;;;;10.00;7.40;;;;;;;-145.52;100.00;65322.94;5108499;28;20458;-68
2023/04/02 02:08:07;;;;;;;17.13;7.60;;;;;;;-145.52;100.00;65322.94;5105156;28;20447;-69
2023/04/02 02:10:36;;;;;;;10.10;7.97;;;;;;;-145.52;100.00;65322.94;5107420;27;20482;-68
2023/04/02 02:13:02;;;;;;;12.13;7.53;;;;;;;-145.52;100.00;65322.94;5096442;28;20495;-67
2023/04/02 02:15:32;;;;;;;13.53;8.17;;;;;;;-145.52;100.00;65322.94;5106006;27;20539;-66
2023/04/02 02:18:01;;;;;;;13.73;8.17;;;;;;;-145.52;100.00;65322.94;5118842;28;20450;-65
2023/04/02 02:20:29;;;;;;;11.13;8.47;;;;;;;-145.52;100.00;65322.94;5110055;28;20489;-67
2023/04/02 02:22:56;;;;;;;14.67;8.10;;;;;;;-145.52;100.00;65322.94;5107987;28;20489;-65
2023/04/02 02:25:25;;;;;;;11.57;7.60;;;;;;;-145.52;100.00;65322.94;5114835;28;20454;-66
2023/04/02 02:28:02;;;;;;;15.03;9.40;;;;;;;-145.52;100.00;65322.94;5107541;28;20455;-68
2023/04/02 02:30:32;;;;;;;10.97;8.00;;;;;;;-145.52;100.00;65322.94;5110828;27;20498;-67
2023/04/02 02:33:04;;;;;;;12.20;8.53;;;;;;;-145.52;100.00;65322.94;5089608;28;20541;-67
2023/04/02 02:35:37;;;;;;;13.60;9.40;;;;;;;-145.52;100.00;65322.94;5088884;27;20505;-67
2023/04/02 02:38:22;;;;;;;12.27;7.27;;;;;;;-145.52;100.00;65322.94;5109216;28;20562;-68
2023/04/02 02:40:50;;;;;;;9.77;7.93;;;;;;;-145.52;100.00;65322.94;5095840;28;20658;-68
2023/04/02 02:43:18;;;;;;;13.03;7.93;;;;;;;-145.52;100.00;65322.94;5104406;28;20983;-66
2023/04/02 02:45:46;;;;;;;15.60;8.90;;;;;;;-145.52;100.00;65322.94;5103197;28;20466;-67
2023/04/02 02:48:15;;;;;;;12.03;7.63;;;;;;;-145.52;100.00;65322.94;5103471;28;20469;-66
2023/04/02 02:50:43;;;;;;;9.23;7.80;;;;;;;-145.52;100.00;65322.94;5102299;27;20458;-67
2023/04/02 02:53:17;;;;;;;10.93;7.40;;;;;;;-145.52;100.00;65322.94;5086701;28;21068;-66
2023/04/02 02:55:44;;;;;;;9.73;7.30;;;;;;;-145.52;100.00;65322.94;5098088;27;20459;-67
2023/04/02 02:58:15;;;;;;;13.40;8.00;;;;;;;-145.52;100.00;65322.94;5103421;28;20447;-66
2023/04/02 03:00:42;;;;;;;14.93;6.90;;;;;;;-145.52;100.00;65322.94;5103353;28;20857;-66
2023/04/02 03:03:11;;;;;;;8.43;6.83;;;;;;;-145.52;100.00;65322.94;5103878;28;20457;-68
2023/04/02 03:05:38;;;;;;;8.60;6.87;;;;;;;-145.52;100.00;65322.94;5103161;28;20775;-66
2023/04/02 03:08:09;;;;;;;12.73;7.73;;;;;;;-145.52;100.00;65322.94;5108666;28;20946;-66
2023/04/02 03:10:39;;;;;;;9.03;7.30;;;;;;;-145.52;100.00;65322.94;5100606;27;20511;-67
2023/04/02 03:13:12;;;;;;;32.07;7.40;;;;;;;-145.52;100.00;65322.94;5090145;28;20547;-67
2023/04/02 03:15:42;;;;;;;11.63;5.93;;;;;;;-145.52;100.00;65322.94;5095041;28;21019;-66
2023/04/02 03:18:11;;;;;;;11.57;6.10;;;;;;;-145.52;100.00;65322.94;5102803;28;20489;-67
2023/04/02 03:20:44;;;;;;;7.60;6.33;;;;;;;-145.52;100.00;65322.94;5095737;28;20459;-69
2023/04/02 03:23:17;;;;;;;5.90;5.30;;;;;;;-145.52;100.00;65322.94;5100647;28;20512;-68
2023/04/02 03:25:46;;;;;;;8.47;6.03;;;;;;;-145.52;100.00;65322.94;5104010;28;20490;-67
2023/04/02 03:28:15;;;;;;;6.60;5.77;;;;;;;-145.52;100.00;65322.94;5104400;28;20936;-66
2023/04/02 03:30:45;;;;;;;10.10;5.00;;;;;;;-145.52;100.00;65322.94;5106405;28;20565;-67
2023/04/02 03:33:14;;;;;;;8.30;5.50;;;;;;;-145.52;100.00;65322.94;5096811;28;20582;-67
2023/04/02 03:35:43;;;;;;;8.27;5.23;;;;;;;-145.52;100.00;65322.94;5099639;27;20516;-67
2023/04/02 03:38:16;;;;;;;6.33;4.57;;;;;;;-145.52;100.00;65322.94;5091685;28;20475;-67
2023/04/02 03:40:47;;;;;;;9.77;5.57;;;;;;;-145.52;100.00;65322.94;5093311;28;21026;-67
2023/04/02 03:43:20;;;;;;;7.47;5.10;;;;;;;-145.52;100.00;65322.94;5102106;28;20451;-67
2023/04/02 03:45:50;;;;;;;9.77;5.00;;;;;;;-145.52;100.00;65322.94;5102222;28;20467;-67
2023/04/02 03:48:18;;;;;;;6.57;5.37;;;;;;;-145.52;100.00;65322.94;5103199;28;20494;-67
2023/04/02 03:50:48;;;;;;;12.93;5.10;;;;;;;-145.52;100.00;65322.94;5102886;28;20495;-66
2023/04/02 03:53:23;;;;;;;5.93;4.80;;;;;;;-145.52;100.00;65322.94;5102090;28;20515;-66
2023/04/02 03:55:49;;;;;;;9.97;4.90;;;;;;;-145.52;100.00;65322.94;5102262;28;20573;-67
2023/04/02 03:58:20;;;;;;;13.70;4.97;;;;;;;-145.52;100.00;65322.94;5102985;28;20467;-66
2023/04/02 04:00:53;;;;;;;5.37;3.90;;;;;;;-145.52;100.00;65322.94;5102150;28;20525;-66
2023/04/02 04:03:21;;;;;;;6.10;4.80;;;;;;;-145.52;100.00;65322.94;5102960;28;20979;-66
2023/04/02 04:05:51;;;;;;;8.63;5.10;;;;;;;-145.52;100.00;65322.94;5091806;27;20479;-67
2023/04/02 04:08:22;;;;;;;8.10;4.80;;;;;;;-145.52;100.00;65322.94;5095307;28;20470;-66
2023/04/02 04:10:51;;;;;;;7.53;4.77;;;;;;;-145.52;100.00;65322.94;5089233;28;20490;-67
2023/04/02 04:13:22;;;;;;;10.50;4.40;;;;;;;-145.52;100.00;65322.94;5095989;28;20525;-66
2023/04/02 04:15:53;;;;;;;9.70;4.03;;;;;;;-145.52;100.00;65322.94;5102991;27;20516;-67
2023/04/02 04:18:28;;;;;;;7.43;3.90;;;;;;;-145.52;100.00;65322.94;5102786;28;20455;-68
2023/04/02 04:20:58;;;;;;;11.73;4.20;;;;;;;-145.52;100.00;65322.94;5102216;28;20534;-67
2023/04/02 04:23:29;;;;;;;8.33;3.90;;;;;;;-145.52;100.00;65322.94;5103048;28;20487;-66
2023/04/02 04:25:58;;;;;;;17.77;5.70;;;;;;;-145.52;100.00;65322.94;5096445;27;20492;-66
2023/04/02 04:28:29;;;;;;;6.50;3.70;;;;;;;-145.52;100.00;65322.94;5083235;28;20478;-68
2023/04/02 04:30:59;;;;;;;5.53;3.80;;;;;;;-145.52;100.00;65322.94;5097880;28;20520;-68
2023/04/02 04:33:33;;;;;;;6.30;4.20;;;;;;;-145.52;100.00;65322.94;5101865;28;20489;-67
2023/04/02 04:36:00;;;;;;;8.80;4.17;;;;;;;-145.52;100.00;65322.94;5104450;28;20471;-68
2023/04/02 04:38:31;;;;;;;8.37;4.23;;;;;;;-145.52;100.00;65322.94;5102065;28;20471;-67
2023/04/02 04:41:03;;;;;;;5.40;3.67;;;;;;;-145.52;100.00;65322.94;5099959;28;20538;-69
2023/04/02 04:43:35;;;;;;;7.97;3.90;;;;;;;-145.52;100.00;65322.94;5101695;28;20903;-68
2023/04/02 04:46:04;;;;;;;9.77;4.73;;;;;;;-145.52;100.00;65322.94;5101021;28;20502;-67
2023/04/02 04:48:35;;;;;;;11.57;4.77;;;;;;;-145.52;100.00;65322.94;5101263;28;20463;-68
2023/04/02 04:51:04;;;;;;;10.07;4.77;;;;;;;-145.52;100.00;65322.94;5101335;28;20574;-67
2023/04/02 04:53:32;;;;;;;12.20;4.77;;;;;;;-145.52;100.00;65322.94;5101239;28;20486;-67
2023/04/02 04:56:01;;;;;;;10.90;5.10;;;;;;;-145.52;100.00;65322.94;5100701;28;20542;-67
2023/04/02 04:58:33;;;;;;;10.33;4.37;;;;;;;-145.52;100.00;65322.94;5102150;28;20472;-67
2023/04/02 05:01:04;;;;;;;11.43;5.30;;;;;;;-145.52;100.00;65322.94;5096652;28;20563;-67
2023/04/02 05:03:34;;;;;;;6.70;4.70;;;;;;;-145.52;100.00;65322.94;5105762;28;20520;-67
2023/04/02 05:06:04;;;;;;;7.50;4.40;;;;;;;-145.52;100.00;65322.94;5093932;27;20506;-67
2023/04/02 05:08:34;;;;;;;10.27;5.67;;;;;;;-145.52;100.00;65322.94;5082759;28;20502;-67
2023/04/02 05:11:04;;;;;;;10.83;5.67;;;;;;;-145.52;100.00;65322.94;5079310;27;20585;-67
2023/04/02 05:13:34;;;;;;;8.27;5.80;;;;;;;-145.52;100.00;65322.94;5096440;28;20487;-67
2023/04/02 05:16:05;;;;;;;11.63;5.90;;;;;;;-145.52;100.00;65322.94;5099263;27;20508;-68
2023/04/02 05:18:34;;;;;;;8.63;5.30;;;;;;;-145.52;100.00;65322.94;5081584;28;20456;-70
2023/04/02 05:21:05;;;;;;;6.10;4.70;;;;;;;-145.52;100.00;65322.94;5090876;28;20514;-69
2023/04/02 05:23:38;;;;;;;6.13;5.17;;;;;;;-145.52;100.00;65322.94;5102914;28;20459;-68
2023/04/02 05:26:08;;;;;;;7.70;5.20;;;;;;;-145.52;100.00;65322.94;5103954;28;20528;-67
2023/04/02 05:28:38;;;;;;;9.60;6.17;;;;;;;-145.52;100.00;65322.94;5100571;28;20486;-67
2023/04/02 05:31:11;;;;;;;9.93;6.40;;;;;;;-145.52;100.00;65322.94;5100235;28;20475;-66
2023/04/02 05:33:38;;;;;;;5.53;4.43;;;;;;;-145.52;100.00;65322.94;5106801;28;20486;-65
2023/04/02 05:36:08;;;;;;;4.50;4.00;;;;;;;-145.52;100.00;65322.94;5101530;28;20478;-67
2023/04/02 05:38:37;;;;;;;8.97;5.20;;;;;;;-145.52;100.00;65322.94;5100614;28;20966;-67
2023/04/02 05:41:08;;;;;;;8.23;5.07;;;;;;;-145.52;100.00;65322.94;5099568;28;20570;-68
2023/04/02 05:43:37;;;;;;;8.70;5.40;;;;;;;-145.52;100.00;65322.94;5102716;28;20728;-67
2023/04/02 05:46:07;;;;;;;7.70;5.03;;;;;;;-145.52;100.00;65322.94;5095077;27;20506;-67
2023/04/02 05:48:37;;;;;;;7.77;4.90;;;;;;;-145.52;100.00;65322.94;5084069;28;20506;-67
2023/04/02 05:51:07;;;;;;;11.90;5.97;;;;;;;-145.52;100.00;65322.94;5087015;28;20505;-67
2023/04/02 05:53:36;;;;;;;11.80;5.23;;;;;;;-145.52;100.00;65322.94;5100366;28;20510;-66
2023/04/02 05:56:06;;;;;;;10.70;6.20;;;;;;;-145.52;100.00;65322.94;5099646;28;20479;-67
2023/04/02 05:58:35;;;;;;;5.80;4.67;;;;;;;-145.52;100.00;65322.94;5101171;28;20938;-67
2023/04/02 06:01:11;;;;;;;6.10;4.80;;;;;;;-145.52;100.00;65322.94;5105767;28;20466;-69
2023/04/02 06:03:44;;;;;;;7.03;5.00;;;;;;;-145.52;100.00;65322.94;5101766;28;20442;-67
2023/04/02 06:06:17;;;;;;;7.47;4.73;;;;;;;-145.52;100.00;65322.94;5089691;27;20534;-67
2023/04/02 06:08:51;;;;;;;6.00;4.10;;;;;;;-145.52;100.00;65322.94;5085179;28;20448;-68
2023/04/02 06:11:20;;;;;;;5.20;4.70;;;;;;;-145.52;100.00;65322.94;5089487;28;20509;-69
2023/04/02 06:13:47;;;;;;;5.20;4.70;;;;;;;-145.52;100.00;65322.94;5100277;28;21058;-68
2023/04/02 06:16:15;;;;;;;8.03;4.63;;;;;;;-145.52;100.00;65322.94;5100049;28;20466;-69
2023/04/02 06:18:42;;;;;;;7.70;5.20;;;;;;;-145.52;100.00;65322.94;5100454;28;20442;-69
2023/04/02 06:21:13;;;;;;;7.43;4.70;;;;;;;-145.52;100.00;65322.94;5100059;28;20533;-67
2023/04/02 06:23:43;;;;;;;8.73;4.67;;;;;;;-145.52;100.00;65322.94;5103451;28;20486;-69
2023/04/02 06:26:16;;;;;;;9.33;5.03;;;;;;;-145.52;100.00;65322.94;5102181;28;20506;-68
2023/04/02 06:28:47;;;;;;;9.13;4.90;;;;;;;-145.52;100.00;65322.94;5100737;28;20536;-70
2023/04/02 06:31:26;;;;;;;7.17;4.93;;;;;;;-145.52;100.00;65322.94;5099151;28;20498;-71
2023/04/02 06:33:55;;;;;;;7.90;5.07;;;;;;;-145.52;100.00;65322.94;5104002;28;20549;-74
2023/04/02 06:36:22;;;;;;;7.83;4.83;;;;;;;-145.52;100.00;65322.94;5102962;28;20502;-72
2023/04/02 06:38:51;;;;;;;6.50;5.30;;;;;;;-145.52;100.00;65322.94;5099833;28;20877;-71
2023/04/02 06:41:21;;;;;;;11.20;5.23;;;;;;;-145.52;100.00;65322.94;5108359;28;20533;-71
2023/04/02 06:43:50;;;;;;;7.03;6.20;;;;;;;-145.52;100.00;65322.94;5100880;28;20475;-71
2023/04/02 06:46:21;;;;;;;5.23;4.60;;;;;;;-145.52;100.00;65322.94;5100301;28;20501;-73
2023/04/02 06:48:50;;;;;;;6.60;4.57;;;;;;;-145.52;100.00;65322.94;5102060;28;20706;-73
2023/04/02 06:51:18;;;;;;;4.80;4.30;;;;;;;-145.52;100.00;65322.94;5102563;28;20566;-72
2023/04/02 06:53:47;;;;;;;7.23;5.70;;;;;;;-145.52;100.00;65322.94;5103723;28;20574;-73
2023/04/02 06:56:23;;;;;;;6.30;4.40;;;;;;;-145.52;100.00;65322.94;5102685;28;20470;-72
2023/04/02 06:58:50;;;;;;;3.90;3.60;;;;;;;-145.52;100.00;65322.94;5111256;28;20481;-72
2023/04/02 07:01:20;;;;;;;6.53;4.17;;;;;;;-145.52;100.00;65322.94;5103257;28;20970;-72
2023/04/02 07:03:47;;;;;;;7.60;4.40;;;;;;;-145.52;100.00;65322.94;5105790;28;20457;-70
2023/04/02 07:06:15;;;;;;;9.70;5.20;;;;;;;-145.52;100.00;65322.94;5103332;28;20486;-72
2023/04/02 07:08:42;;;;;;;6.70;3.93;;;;;;;-145.52;100.00;65322.94;5110256;28;20471;-72
2023/04/02 07:11:10;;;;;;;9.97;4.80;;;;;;;-145.52;100.00;65322.94;5102434;28;20494;-72
2023/04/02 07:13:38;;;;;;;5.87;3.90;;;;;;;-145.52;100.00;65322.94;5108270;28;20455;-71
2023/04/02 07:16:06;;;;;;;8.20;4.60;;;;;;;-145.52;100.00;65322.94;5102907;28;20478;-71
2023/04/02 07:18:33;;;;;;;7.00;4.40;;;;;;;-145.52;100.00;65322.94;5103801;28;20439;-71
2023/04/02 07:21:00;;;;;;;5.13;4.33;;;;;;;-145.52;100.00;65322.94;5100994;28;20494;-72
2023/04/02 07:23:27;;;;;;;4.00;3.53;;;;;;;-145.52;100.00;65322.94;5104704;28;20884;-71
2023/04/02 07:25:55;;;;;;;4.70;3.40;;;;;;;-145.52;100.00;65322.94;5104821;28;20515;-72
2023/04/02 07:28:22;;;;;;;3.87;3.57;;;;;;;-145.52;100.00;65322.94;5100644;28;20458;-70
2023/04/02 07:30:51;;;;;;;5.40;3.90;;;;;;;-145.52;100.00;65322.94;5102146;28;20478;-71
2023/04/02 07:33:19;;;;;;;7.57;3.50;;;;;;;-145.52;100.00;65322.94;5102959;28;20508;-70
2023/04/02 07:35:46;;;;;;;4.50;3.10;;;;;;;-145.52;100.00;65322.94;5105878;27;20476;-70
2023/04/02 07:38:13;;;;;;;5.20;4.13;;;;;;;-145.52;100.00;65322.94;5083236;28;20532;-70
2023/04/02 07:40:40;;;;;;;4.77;3.57;;;;;;;-145.52;100.00;65322.94;5083380;28;20505;-70
2023/04/02 07:43:06;;;;;;;5.07;3.33;;;;;;;-145.52;100.00;65322.94;5101141;28;20485;-70
2023/04/02 07:45:33;;;;;;;4.03;3.63;;;;;;;-145.52;100.00;65322.94;5096742;28;20474;-71
2023/04/02 07:48:06;;;;;;;7.03;3.50;;;;;;;-145.52;100.00;65322.94;5099875;28;20506;-72
2023/04/02 07:50:33;;;;;;;3.60;3.00;;;;;;;-145.52;100.00;65322.94;5099778;28;20491;-72
2023/04/02 07:53:00;;;;;;;5.47;3.50;;;;;;;-145.52;100.00;65322.94;5094448;28;20444;-72
2023/04/02 07:55:27;;;;;;;5.50;3.60;;;;;;;-145.52;100.00;65322.94;5099551;28;20504;-72
2023/04/02 07:57:55;;;;;;;7.33;3.40;;;;;;;-145.52;100.00;65322.94;5102021;28;20475;-70
2023/04/02 08:00:22;;;;;;;9.23;2.93;;;;;;;-145.52;100.00;65322.94;5104152;28;20493;-70
2023/04/02 08:02:49;;;;;;;4.30;3.07;;;;;;;-145.52;100.00;65322.94;5096971;28;20474;-76
2023/04/02 08:05:17;;;;;;;7.17;2.90;;;;;;;-145.52;100.00;65322.94;5101329;28;20447;-72
2023/04/02 08:07:44;;;;;;;4.93;2.73;;;;;;;-145.52;100.00;65322.94;5102422;28;20443;-71
2023/04/02 08:10:12;;;;;;;5.70;2.87;;;;;;;-145.52;100.00;65322.94;5107850;28;20475;-73
2023/04/02 08:12:38;;;;;;;3.30;2.70;;;;;;;-145.52;100.00;65322.94;5108675;28;20515;-73
2023/04/02 08:15:06;;;;;;;4.40;2.67;;;;;;;-145.52;100.00;65322.94;5112713;28;20512;-73
2023/04/02 08:17:33;;;;;;;3.07;2.77;;;;;;;-145.52;100.00;65322.94;5107308;27;20501;-73
2023/04/02 08:20:00;;;;;;;4.47;2.97;;;;;;;-145.52;100.00;65322.94;5102711;28;20447;-71
2023/04/02 08:22:31;;;;;;;6.90;2.93;;;;;;;-145.52;100.00;65322.94;5100775;28;20997;-73
2023/04/02 08:24:58;;;;;;;6.50;2.63;;;;;;;-145.52;100.00;65322.94;5104539;28;20455;-72
2023/04/02 08:27:26;;;;;;;4.73;2.97;;;;;;;-145.52;100.00;65322.94;5098417;27;20517;-72
2023/04/02 08:29:52;;;;;;;5.43;3.00;;;;;;;-145.52;100.00;65322.94;5095903;28;20486;-73
2023/04/02 08:32:20;;;;;;;4.17;3.30;;;;;;;-145.52;100.00;65322.94;5101019;28;20475;-72
2023/04/02 08:34:47;;;;;;;3.40;3.10;;;;;;;-145.52;100.00;65322.94;5102202;28;20490;-71
2023/04/02 08:37:14;;;;;;;6.00;3.50;;;;;;;-145.52;100.00;65322.94;5101377;28;20844;-70
2023/04/02 08:39:42;;;;;;;3.47;2.80;;;;;;;-145.52;100.00;65322.94;5108632;28;20497;-71
2023/04/02 08:42:20;;;;;;;5.60;2.77;;;;;;;-145.52;100.00;65322.94;5108422;28;20501;-71
2023/04/02 08:44:55;;;;;;;6.60;2.73;;;;;;;-145.52;100.00;65322.94;5095293;28;20504;-72
2023/04/02 08:47:24;;;;;;;7.27;2.93;;;;;;;-145.52;100.00;65322.94;5089315;28;20466;-71
2023/04/02 08:49:55;;;;;;;6.43;3.53;;;;;;;-145.52;100.00;65322.94;5102696;28;20473;-71
2023/04/02 08:52:24;;;;;;;9.17;3.63;;;;;;;-145.52;100.00;65322.94;5089436;27;20476;-72
2023/04/02 08:54:55;;;;;;;4.17;3.37;;;;;;;-145.52;100.00;65322.94;5083165;28;20491;-72
2023/04/02 08:57:30;;;;;;;12.03;4.83;;;;;;;-145.52;100.00;65322.94;5102461;28;20471;-70
2023/04/02 09:00:00;;;;;;;4.63;3.67;;;;;;;-145.52;100.00;65322.94;5100314;28;20452;-74
2023/04/02 09:02:31;;;;;;;6.03;3.03;;;;;;;-145.52;100.00;65322.94;5087172;27;20531;-73
2023/04/02 09:05:00;;;;;;;3.13;2.23;;;;;;;-145.52;100.00;65322.94;5083694;28;20495;-71
2023/04/02 09:07:27;;;;;;;4.60;2.73;;;;;;;-145.52;100.00;65322.94;5100774;28;20518;-72
2023/04/02 09:09:56;;;;;;;5.43;2.80;;;;;;;-145.52;100.00;65322.94;5106115;28;20520;-71
2023/04/02 09:12:26;;;;;;;3.10;2.50;;;;;;;-145.52;100.00;65322.94;5097839;28;20478;-71
2023/04/02 09:15:01;;;;;;;4.13;2.60;;;;;;;-145.52;100.00;65322.94;5093897;28;20521;-71
2023/04/02 09:17:28;;;;;;;6.63;3.07;;;;;;;-145.52;100.00;65322.94;5100654;28;20500;-72
2023/04/02 09:19:56;;;;;;;5.80;2.70;;;;;;;-145.52;100.00;65322.94;5100102;28;20455;-71
2023/04/02 09:22:25;;;;;;;4.40;2.63;;;;;;;-145.52;100.00;65322.94;5080185;28;20508;-72
2023/04/02 09:24:53;;;;;;;3.40;2.67;;;;;;;-145.52;100.00;65322.94;5078854;28;20636;-72
2023/04/02 09:27:23;;;;;;;4.07;2.70;;;;;;;-145.52;100.00;65322.94;5096661;28;20479;-71
2023/04/02 09:29:51;;;;;;;4.20;2.60;;;;;;;-145.52;100.00;65322.94;5100504;28;20468;-71
2023/04/02 09:32:34;;;;;;;2.17;1.97;;;;;;;-145.52;100.00;65322.94;5098755;27;20677;-71
2023/04/02 09:35:11;;;;;;;1.97;1.70;;;;;;;-145.52;100.00;65322.94;5098779;28;20559;-70
2023/04/02 09:37:38;;;;;;;3.00;1.90;;;;;;;-145.52;100.00;65322.94;5101588;28;20475;-71
2023/04/02 09:40:22;;;;;;;7.83;2.40;;;;;;;-145.52;100.00;65322.94;5103765;28;20490;-72
2023/04/02 09:43:02;;;;;;;1.63;1.50;;;;;;;-145.52;100.00;65322.94;5097471;28;20459;-72
2023/04/02 09:45:29;;;;;;;2.40;1.60;;;;;;;-145.52;100.00;65322.94;5090910;27;20497;-71
2023/04/02 09:47:58;;;;;;;2.20;2.00;;;;;;;-145.52;100.00;65322.94;5087001;28;20444;-72
2023/04/02 09:50:30;;;;;;;5.37;2.00;;;;;;;-145.52;100.00;65322.94;5081887;28;20450;-71
2023/04/02 09:52:57;;;;;;;3.17;2.07;;;;;;;-145.52;100.00;65322.94;5091120;28;20477;-70
2023/04/02 09:55:26;;;;;;;4.60;3.13;;;;;;;-145.52;100.00;65322.94;5103470;28;20514;-70
2023/04/02 09:58:10;;;;;;;3.30;1.70;;;;;;;-145.52;100.00;65322.94;5098066;28;20459;-71
2023/04/02 10:00:38;;;;;;;4.57;2.03;;;;;;;-145.52;100.00;65322.94;5090429;27;20483;-71
2023/04/02 10:03:07;;;;;;;3.40;1.90;;;;;;;-145.52;100.00;65322.94;5090081;28;20520;-72
2023/04/02 10:05:34;;;;;;;3.90;2.07;;;;;;;-145.52;100.00;65322.94;5086797;28;20469;-69
2023/04/02 10:08:16;;;;;;;2.63;1.80;;;;;;;-145.52;100.00;65322.94;5094445;28;20443;-71
2023/04/02 10:10:45;;;;;;;3.23;1.80;;;;;;;-145.52;100.00;65322.94;5095787;27;20502;-70
2023/04/02 10:13:18;;;;;;;3.23;2.07;;;;;;;-145.52;100.00;65322.94;5082596;28;20479;-71
2023/04/02 10:15:50;;;;;;;4.60;1.90;;;;;;;-145.52;100.00;65322.94;5076088;28;20502;-71
2023/04/02 10:18:22;;;;;;;2.10;1.50;;;;;;;-145.52;100.00;65322.94;5096175;28;20447;-71
2023/04/02 10:20:52;;;;;;;3.57;2.40;;;;;;;-145.52;100.00;65322.94;5104329;28;20504;-71
2023/04/02 10:23:19;;;;;;;2.87;1.83;;;;;;;-145.52;100.00;65322.94;5100932;28;20438;-70
2023/04/02 10:25:49;;;;;;;5.10;2.10;;;;;;;-145.52;100.00;65322.94;5104742;28;20474;-70
2023/04/02 10:28:25;;;;;;;3.33;2.40;;;;;;;-145.52;100.00;65322.94;5089777;28;20522;-70
2023/04/02 10:30:56;;;;;;;3.13;2.23;;;;;;;-145.52;100.00;65322.94;5100668;28;20550;-70
2023/04/02 10:33:26;;;;;;;4.07;2.27;;;;;;;-145.52;100.00;65322.94;5103156;28;20480;-68
2023/04/02 10:35:58;;;;;;;3.17;1.90;;;;;;;-145.52;100.00;65322.94;5104322;28;20999;-67
2023/04/02 10:38:31;;;;;;;2.90;2.00;;;;;;;-145.52;100.00;65322.94;5100013;28;20470;-67
2023/04/02 10:40:59;;;;;;;3.20;2.27;;;;;;;-145.52;100.00;65322.94;5099987;28;20490;-68
2023/04/02 10:44:08;;;;;;;4.43;2.47;;;;;;;-145.52;100.00;65322.94;5102558;28;20454;-68
2023/04/02 10:46:41;;;;;;;4.40;2.07;;;;;;;-145.52;100.00;65322.94;5091676;28;20472;-69
2023/04/02 10:49:15;;;;;;;4.63;2.17;;;;;;;-145.52;100.00;65322.94;5104152;28;20455;-68
2023/04/02 10:51:45;;;;;;;4.70;2.30;;;;;;;-145.52;100.00;65322.94;5107660;28;20486;-70
2023/04/02 10:54:28;;;;;;;2.50;1.73;;;;;;;-145.52;100.00;65322.94;5091542;28;20506;-69
2023/04/02 10:56:58;;;;;;;2.97;1.90;;;;;;;-145.52;100.00;65322.94;5099314;28;21012;-69
2023/04/02 10:59:27;;;;;;;2.50;1.67;;;;;;;-145.52;100.00;65322.94;5102819;28;20459;-70
2023/04/02 11:01:57;;;;;;;2.40;1.57;;;;;;;-145.52;100.00;65322.94;5102447;28;20470;-70
2023/04/02 11:04:27;;;;;;;4.83;1.80;;;;;;;-145.52;100.00;65322.94;5100466;28;20482;-69
2023/04/02 11:06:57;;;;;;;3.03;1.60;;;;;;;-145.52;100.00;65322.94;5105000;28;20513;-69
2023/04/02 11:09:27;;;;;;;4.47;1.90;;;;;;;-145.52;100.00;65322.94;5100007;28;20466;-70
2023/04/02 11:11:56;;;;;;;3.60;2.10;;;;;;;-145.52;100.00;65322.94;5096559;28;21018;-69
2023/04/02 11:14:25;;;;;;;3.00;2.20;;;;;;;-145.52;100.00;65322.94;5112958;28;20497;-69
2023/04/02 11:16:53;;;;;;;3.57;2.07;;;;;;;-145.52;100.00;65322.94;5098360;28;20528;-70
2023/04/02 11:19:31;;;;;;;3.70;1.70;;;;;;;-145.52;100.00;65322.94;5110897;28;20435;-70
2023/04/02 11:21:58;;;;;;;4.77;2.00;;;;;;;-145.52;100.00;65322.94;5103934;27;20478;-69
2023/04/02 11:24:46;;;;;;;2.87;1.80;;;;;;;-145.52;100.00;65322.94;5106433;28;20537;-69